Rachel — D5CG4 — position and weather

sailwx.info

Track history (hours):
 
Tides and Currents Weather Stations Pressure Air Temp Water Temp Dewpoint Dewpoint Depression Visibility Wind Speed Wind Dir Waves Ship Positions

Rachel

Last reported at 2015-Jun-14 17:29 UTC. Time now 2015-Jul-01 06:39 UTC.
Position S 32°31' E 035°55'.
Warning: this ship's position is 16 days out of date.

Length 189 m; draft 12 m.

Type: Cargo ship. MMSI: 636015692.

Date/timePositionNaut miles runAvg speedWind from/ knotsBaromVisibWave heightAir tempDewpointWater temp
2015-Jun-14 17:29S 32°31' E 035°55'4411.1
2015-Jun-14 13:33S 32°46' E 035°06'8610.4
2015-Jun-14 05:18S 33°10' E 033°28'8 9.7
2015-Jun-14 04:27S 33°12' E 033°18'8 9.2
2015-Jun-14 03:33S 33°14' E 033°09'9 9.0
2015-Jun-14 02:33S 33°17' E 032°59'9 8.9
2015-Jun-14 01:33S 33°19' E 032°49'9 9.2
2015-Jun-14 00:33S 33°22' E 032°38'10 9.7
2015-Jun-13 23:33S 33°25' E 032°27'10 9.9
2015-Jun-13 22:33S 33°27' E 032°15'10 9.9
2015-Jun-13 21:32S 33°30' E 032°04'1110.4
2015-Jun-13 20:30S 33°33' E 031°51'1410.0
2015-Jun-13 19:04S 33°37' E 031°35'53 9.5
2015-Jun-13 13:33S 33°51' E 030°34'10 9.6
2015-Jun-13 12:33S 33°55' E 030°23'  
2015-Jun-11 03:32S 34°57' E 019°10'4510.2
2015-Jun-10 23:07S 34°43' E 018°18'  
Track history (hours):
 
Tides and Currents Weather Stations Pressure Air Temp Water Temp Dewpoint Dewpoint Depression Visibility Wind Speed Wind Dir Waves Ship Positions

Rachel

Last reported at 2015-Jun-14 17:29 UTC. Time now 2015-Jul-01 06:39 UTC.
Position S 32°31' E 035°55'.
Warning: this ship's position is 16 days out of date.

Length 189 m; draft 12 m.

Type: Cargo ship. MMSI: 636015692.

Date/timePositionNaut miles runAvg speedWind from/ knotsBaromVisibWave heightAir tempDewpointWater temp
2015-Jun-14 17:29S 32°31' E 035°55'4411.1
2015-Jun-14 13:33S 32°46' E 035°06'8610.4
2015-Jun-14 05:18S 33°10' E 033°28'8 9.7
2015-Jun-14 04:27S 33°12' E 033°18'8 9.2
2015-Jun-14 03:33S 33°14' E 033°09'9 9.0
2015-Jun-14 02:33S 33°17' E 032°59'9 8.9
2015-Jun-14 01:33S 33°19' E 032°49'9 9.2
2015-Jun-14 00:33S 33°22' E 032°38'10 9.7
2015-Jun-13 23:33S 33°25' E 032°27'10 9.9
2015-Jun-13 22:33S 33°27' E 032°15'10 9.9
2015-Jun-13 21:32S 33°30' E 032°04'1110.4
2015-Jun-13 20:30S 33°33' E 031°51'1410.0
2015-Jun-13 19:04S 33°37' E 031°35'53 9.5
2015-Jun-13 13:33S 33°51' E 030°34'10 9.6
2015-Jun-13 12:33S 33°55' E 030°23'  
2015-Jun-11 03:32S 34°57' E 019°10'4510.2
2015-Jun-10 23:07S 34°43' E 018°18'  

Dump ship's entire track history